Weather reports worldwide

Advertisment
Madrid, Spain (8222): temperature & dewpoint: 10.08.2018 18:00:00 - 16.08.2018 18:00:00 (CEST)Madrid, Spain (8222): wind speed & gusts: 10.08.2018 18:00:00 - 16.08.2018 18:00:00 (CEST)Madrid, Spain (8222): wind direction: 10.08.2018 18:00:00 - 16.08.2018 18:00:00 (CEST)Madrid, Spain (8222): reduced air pressure: 10.08.2018 18:00:00 - 16.08.2018 18:00:00 (CEST)Madrid, Spain (8222): precipitation: 10.08.2018 18:00:00 - 16.08.2018 18:00:00 (CEST)
Date & Time tt [°C] td [°C] ff [km/h] ff [kn] fx [km/h] fx [kn] dd ppp [hPa] rr [mm]
16.08.2018 18:00:00 28,7 15,6 4 2 14 7 W 1009,9 0,0
16.08.2018 17:00:00 30,5 16,1 3 2 22 12 SSW 1010,0 0,0
16.08.2018 16:00:00 31,7 16,5 8 4 23 12 SSE 1010,0 0,0
16.08.2018 15:00:00 31,2 16,7 8 5 24 13 S 1011,2 0,0
16.08.2018 14:00:00 29,6 16,0 8 4 22 12 S 1012,1 -
16.08.2018 13:00:00 29,0 15,9 11 6 21 11 SE 1012,9 0,0
16.08.2018 12:00:00 27,8 16,1 7 4 18 10 SE 1013,1 0,0
16.08.2018 11:00:00 25,5 15,5 9 5 21 11 SE 1013,2 0,0
16.08.2018 10:00:00 24,1 14,8 9 5 21 12 E 1013,2 0,0
16.08.2018 09:00:00 23,2 15,3 6 4 16 9 E 1013,0 0,0
16.08.2018 08:00:00 23,1 16,6 6 4 16 8 E 1012,3 -
16.08.2018 07:00:00 23,3 16,8 6 3 18 10 ENE 1012,0 0,0
16.08.2018 06:00:00 24,2 17,5 7 4 16 9 NE 1011,4 0,0
16.08.2018 05:00:00 24,6 18,3 6 3 15 8 E 1011,5 0,0
16.08.2018 04:00:00 24,9 18,3 3 2 17 9 ENE 1011,5 0,0
16.08.2018 03:00:00 25,8 18,2 9 5 19 10 E 1011,4 0,0
16.08.2018 02:00:00 26,7 15,7 9 5 21 11 ESE 1011,4 -
16.08.2018 01:00:00 27,3 13,7 5 3 23 13 ENE 1011,0 0,0
16.08.2018 00:00:00 25,7 11,8 5 3 10 5 NNE 1011,0 0,0
15.08.2018 23:00:00 26,8 11,7 7 4 14 7 NW 1011,0 0,0
15.08.2018 22:00:00 28,0 12,0 4 2 10 5 W 1010,3 0,0
15.08.2018 21:00:00 29,8 13,2 2 1 18 10 WSW 1009,7 0,0
15.08.2018 20:00:00 31,8 14,4 8 4 16 9 SW 1009,0 -
15.08.2018 19:00:00 32,7 15,3 5 3 20 11 SW 1009,0 0,0
15.08.2018 18:00:00 33,2 16,1 2 1 22 12 NW 1009,3 0,0
15.08.2018 17:00:00 32,9 16,3 3 2 18 10 WNW 1010,1 0,0
15.08.2018 16:00:00 33,0 17,6 4 2 19 10 W 1010,5 0,0
15.08.2018 15:00:00 32,5 18,7 2 1 16 9 S 1011,3 0,0
15.08.2018 14:00:00 30,9 18,6 5 3 16 9 SE 1012,4 -
15.08.2018 13:00:00 28,8 17,6 4 2 14 8 ENE 1013,5 0,0
15.08.2018 12:00:00 26,5 16,7 4 2 14 8 ENE 1014,5 0,0
15.08.2018 11:00:00 24,5 15,2 4 2 18 10 ENE 1014,0 0,0
15.08.2018 10:00:00 21,8 12,3 9 5 24 13 NE 1015,7 0,0
15.08.2018 09:00:00 20,0 10,6 15 8 26 14 NE 1016,1 0,0
15.08.2018 08:00:00 19,8 10,5 11 6 23 12 NE 1016,0 -
15.08.2018 07:00:00 20,0 10,4 12 6 22 12 NE 1015,4 0,0
15.08.2018 06:00:00 20,6 10,6 10 5 29 15 NE 1015,3 0,0
15.08.2018 05:00:00 21,0 10,8 11 6 30 16 NE 1015,1 0,0
15.08.2018 04:00:00 21,6 11,0 13 7 32 17 NE 1015,1 0,0
15.08.2018 03:00:00 22,4 11,1 16 9 31 17 NE 1014,9 0,0
15.08.2018 02:00:00 23,7 11,3 12 6 28 15 NE 1015,2 -
15.08.2018 01:00:00 25,0 11,6 16 9 29 16 NE 1014,2 0,0
15.08.2018 00:00:00 27,0 11,9 11 6 28 15 NE 1013,4 0,0
14.08.2018 23:00:00 27,7 12,1 13 7 30 16 NE 1013,1 0,0
14.08.2018 22:00:00 27,4 13,8 6 3 14 7 N 1012,7 0,0
14.08.2018 21:00:00 29,3 14,7 0 0 8 5 N 1011,5 0,0
14.08.2018 20:00:00 30,9 15,3 1 0 12 7 E 1011,1 -
14.08.2018 19:00:00 31,5 15,4 4 2 13 7 ESE 1011,2 0,0
14.08.2018 18:00:00 31,4 16,6 5 3 15 8 WSW 1011,7 0,0
14.08.2018 17:00:00 31,6 16,0 1 1 23 13 NW 1012,0 0,0
14.08.2018 16:00:00 32,4 16,2 2 1 16 8 WNW 1012,2 0,0
14.08.2018 15:00:00 31,9 15,8 4 2 19 10 ENE 1013,0 0,0
14.08.2018 14:00:00 30,7 16,6 6 3 19 10 ENE 1013,5 -
14.08.2018 13:00:00 29,1 16,6 6 3 18 10 NE 1014,1 0,0
14.08.2018 12:00:00 26,7 16,3 8 4 21 11 NE 1014,9 0,0
14.08.2018 11:00:00 23,7 15,4 9 5 22 12 NE 1015,2 0,0
14.08.2018 10:00:00 21,3 14,4 11 6 29 15 ENE 1015,6 0,0
14.08.2018 09:00:00 19,9 13,6 9 5 26 14 ENE 1015,7 0,0
14.08.2018 08:00:00 19,3 13,1 8 5 30 16 NE 1015,4 -
14.08.2018 07:00:00 19,6 13,1 17 9 35 19 NE 1014,4 0,0
14.08.2018 06:00:00 20,4 13,4 13 7 32 17 NE 1013,9 0,0
14.08.2018 05:00:00 21,3 13,5 14 8 29 16 NE 1013,4 0,0
14.08.2018 04:00:00 22,2 13,9 14 8 28 15 NE 1013,4 0,0
14.08.2018 03:00:00 23,2 13,7 12 6 27 15 NE 1012,9 0,0
14.08.2018 02:00:00 24,6 11,2 14 8 27 15 NE 1012,3 -
14.08.2018 01:00:00 24,5 10,0 5 3 16 8 ENE 1012,1 0,0
14.08.2018 00:00:00 25,2 9,9 7 4 14 8 E 1011,5 0,0
13.08.2018 23:00:00 26,1 9,8 5 3 17 9 NW 1010,8 0,0
13.08.2018 22:00:00 27,5 10,3 7 4 22 12 NNW 1009,7 0,0
13.08.2018 21:00:00 29,4 11,0 12 6 28 15 NNW 1008,6 0,0
13.08.2018 20:00:00 30,9 12,3 10 5 24 13 WNW 1007,7 -
13.08.2018 19:00:00 32,0 14,1 9 5 24 13 NW 1007,6 0,0
13.08.2018 18:00:00 32,7 15,7 7 4 22 12 WNW 1007,3 0,0
13.08.2018 17:00:00 33,0 15,5 7 4 23 12 S 1007,5 0,0
13.08.2018 16:00:00 33,3 15,8 6 4 23 13 SSW 1008,2 0,0
13.08.2018 15:00:00 32,3 15,8 7 4 24 13 W 1008,7 0,0
13.08.2018 14:00:00 31,2 16,4 12 6 23 13 W 1009,6 -
13.08.2018 13:00:00 29,5 16,0 8 4 21 11 W 1010,5 0,0
13.08.2018 12:00:00 27,2 17,1 5 3 19 10 SSW 1011,0 0,0
13.08.2018 11:00:00 24,9 16,9 4 2 10 5 S 1011,5 0,0
13.08.2018 10:00:00 23,1 16,6 5 3 12 6 SE 1011,9 0,0
13.08.2018 09:00:00 22,0 16,0 6 4 14 8 E 1012,0 0,0
13.08.2018 08:00:00 21,3 14,9 8 5 15 8 E 1011,7 -
13.08.2018 07:00:00 22,1 15,2 6 3 10 6 ENE 1011,1 0,0
13.08.2018 06:00:00 21,9 15,0 0 0 10 6 N 1011,0 0,0
13.08.2018 05:00:00 23,6 14,3 4 2 14 8 ESE 1010,7 0,0
13.08.2018 04:00:00 23,4 12,4 3 1 6 4 ESE 1010,9 0,0
13.08.2018 03:00:00 23,8 12,4 0 0 8 5 N 1011,2 0,0
13.08.2018 02:00:00 24,6 12,8 1 1 10 6 SSE 1011,3 -
13.08.2018 01:00:00 26,4 12,8 4 2 14 8 ENE 1010,5 0,0
13.08.2018 00:00:00 27,0 12,2 10 5 23 12 NNW 1010,0 0,0
12.08.2018 23:00:00 28,3 13,1 6 4 19 10 W 1009,7 0,0
12.08.2018 22:00:00 29,3 13,1 8 4 21 11 W 1009,0 0,0
12.08.2018 21:00:00 30,5 14,1 6 3 29 16 W 1008,2 0,0
12.08.2018 20:00:00 32,0 14,6 13 7 36 19 W 1007,5 -
12.08.2018 19:00:00 33,5 16,0 14 8 40 22 W 1007,2 0,0
12.08.2018 18:00:00 34,0 16,4 13 7 39 21 WSW 1007,5 0,0
12.08.2018 17:00:00 34,4 17,1 13 7 37 20 WSW 1008,1 0,0
12.08.2018 16:00:00 34,6 17,4 15 8 34 18 WSW 1008,8 0,0
12.08.2018 15:00:00 34,1 19,0 6 3 26 14 SW 1010,1 0,0
12.08.2018 14:00:00 32,6 19,1 5 3 18 10 SSW 1011,0 -
12.08.2018 13:00:00 30,6 19,3 2 1 15 8 SSE 1012,1 0,0
12.08.2018 12:00:00 28,9 19,5 4 2 14 7 SE 1013,1 0,0
12.08.2018 11:00:00 26,3 18,9 4 2 16 9 SE 1014,0 0,0
12.08.2018 10:00:00 24,4 17,6 6 4 16 8 E 1014,7 0,0
12.08.2018 09:00:00 23,4 17,1 5 3 14 8 E 1014,7 0,0
12.08.2018 08:00:00 23,2 17,5 4 2 14 8 ENE 1014,8 -
12.08.2018 07:00:00 23,6 18,0 6 3 14 8 E 1014,7 0,0
12.08.2018 06:00:00 23,9 17,4 7 4 21 11 ESE 1014,0 0,0
12.08.2018 05:00:00 24,9 17,4 6 4 16 9 ESE 1013,8 0,0
12.08.2018 04:00:00 25,6 17,2 6 4 16 9 ESE 1013,7 0,0
12.08.2018 03:00:00 26,3 16,2 9 5 15 8 ESE 1013,9 0,0
12.08.2018 02:00:00 26,5 15,5 3 1 17 9 S 1014,2 -
12.08.2018 01:00:00 27,0 14,7 6 3 18 10 S 1014,8 0,0
12.08.2018 00:00:00 26,7 13,8 0 0 0 0 N 1014,5 0,0
11.08.2018 23:00:00 27,4 13,8 0 0 3 2 N 1014,3 0,0
11.08.2018 22:00:00 28,4 14,2 3 1 9 5 NW 1014,0 0,0
11.08.2018 21:00:00 29,8 15,2 5 3 14 8 WNW 1013,5 0,0
11.08.2018 20:00:00 31,7 15,6 7 4 16 8 SW 1012,9 -
11.08.2018 19:00:00 32,4 16,2 7 4 21 11 S 1013,1 0,0
11.08.2018 18:00:00 32,7 16,6 6 3 20 11 SSW 1013,3 0,0
11.08.2018 17:00:00 32,7 17,3 3 2 21 12 NW 1014,2 0,0
11.08.2018 16:00:00 33,2 17,8 6 4 16 9 SSW 1014,8 0,0
11.08.2018 15:00:00 32,7 18,8 1 1 18 10 NE 1015,4 0,0
11.08.2018 14:00:00 31,0 19,7 5 3 20 11 SE 1016,5 -
11.08.2018 13:00:00 29,9 20,5 7 4 17 9 E 1017,5 0,0
11.08.2018 12:00:00 27,2 19,6 6 4 19 10 E 1018,4 0,0
11.08.2018 11:00:00 25,5 19,4 7 4 18 10 ESE 1019,0 0,0
11.08.2018 10:00:00 23,9 19,0 9 5 18 10 E 1019,5 0,1
11.08.2018 09:00:00 22,8 18,5 7 4 14 8 E 1019,6 0,0
11.08.2018 08:00:00 22,1 17,9 7 4 19 10 E 1019,6 -
11.08.2018 07:00:00 22,4 17,9 8 5 20 11 E 1019,1 0,0
11.08.2018 06:00:00 22,9 18,0 11 6 21 12 E 1018,8 0,0
11.08.2018 05:00:00 23,0 18,1 8 4 19 10 E 1018,7 0,0
11.08.2018 04:00:00 23,5 18,2 9 5 19 10 E 1018,7 0,0
11.08.2018 03:00:00 24,3 18,0 10 5 24 13 SE 1018,3 0,0
11.08.2018 02:00:00 25,2 17,4 9 5 20 11 SE 1018,3 -
11.08.2018 01:00:00 26,2 17,0 13 7 28 15 SE 1018,2 0,0
11.08.2018 00:00:00 27,7 16,6 11 6 27 15 SSE 1017,4 0,0
10.08.2018 23:00:00 27,7 15,0 10 5 19 10 SE 1016,7 0,0
10.08.2018 22:00:00 27,3 14,7 6 4 14 7 N 1015,8 0,0
10.08.2018 21:00:00 28,6 15,2 3 2 8 4 NNW 1015,0 0,0
10.08.2018 20:00:00 29,9 15,6 5 3 14 8 NW 1014,4 -
10.08.2018 19:00:00 31,0 16,6 1 1 15 8 S 1014,3 0,0
10.08.2018 18:00:00 31,1 17,1 7 4 16 9 SSE 1014,6 0,0

tt = temperature
td = dewpoint
ff = wind speed
fx = gusts
dd = wind direction
ppp = reduced air pressure
rr = precipitation

Next stations